createdAt,value
2023-01-27T00:00:18.380Z,9.33
2023-01-27T00:02:44.353Z,9.63
2023-01-27T00:05:11.331Z,9.80
2023-01-27T00:07:37.485Z,9.00
2023-01-27T00:10:04.041Z,9.63
2023-01-27T00:12:48.253Z,9.07
2023-01-27T00:15:14.666Z,8.97
2023-01-27T00:17:40.664Z,9.27
2023-01-27T00:20:06.938Z,8.13
2023-01-27T00:22:51.365Z,9.83
2023-01-27T00:25:17.399Z,8.30
2023-01-27T00:27:43.128Z,9.47
2023-01-27T00:30:09.594Z,8.33
2023-01-27T00:32:54.134Z,10.37
2023-01-27T00:35:19.901Z,9.00
2023-01-27T00:37:46.111Z,9.30
2023-01-27T00:40:13.154Z,8.30
2023-01-27T00:42:39.056Z,10.23
2023-01-27T00:45:24.176Z,9.87
2023-01-27T00:47:50.217Z,9.33
2023-01-27T00:50:16.138Z,7.17
2023-01-27T00:52:42.544Z,10.13
2023-01-27T00:55:10.117Z,9.13
2023-01-27T00:57:36.289Z,9.77
2023-01-27T01:00:03.493Z,12.20
2023-01-27T01:02:29.218Z,10.13
2023-01-27T01:04:54.981Z,9.57
2023-01-27T01:07:20.709Z,9.17
2023-01-27T01:09:46.428Z,9.93
2023-01-27T01:12:12.171Z,8.43
2023-01-27T01:14:37.915Z,9.03
2023-01-27T01:17:03.631Z,9.70
2023-01-27T01:19:30.086Z,9.73
2023-01-27T01:21:55.878Z,9.80
2023-01-27T01:24:21.706Z,10.47
2023-01-27T01:26:47.489Z,10.03
2023-01-27T01:29:13.192Z,11.63
2023-01-27T01:31:38.997Z,9.97
2023-01-27T01:34:04.892Z,9.70
2023-01-27T01:36:30.638Z,10.87
2023-01-27T01:38:56.573Z,9.90
2023-01-27T01:41:22.759Z,9.37
2023-01-27T01:43:49.369Z,11.00
2023-01-27T01:46:15.725Z,10.93
2023-01-27T01:48:53.692Z,9.47
2023-01-27T01:51:25.094Z,11.00
2023-01-27T01:53:54.431Z,11.00
2023-01-27T01:56:23.136Z,11.40
2023-01-27T01:58:49.188Z,10.33
2023-01-27T02:01:15.957Z,11.50
2023-01-27T02:03:43.302Z,10.63
2023-01-27T02:06:09.779Z,10.80
2023-01-27T02:08:40.629Z,10.70
2023-01-27T02:11:07.687Z,10.03
2023-01-27T02:13:33.408Z,9.87
2023-01-27T02:15:59.322Z,11.17
2023-01-27T02:18:25.705Z,11.90
2023-01-27T02:20:53.421Z,11.67
2023-01-27T02:23:24.904Z,11.73
2023-01-27T02:26:12.907Z,10.30
2023-01-27T02:28:38.674Z,11.63
2023-01-27T02:31:04.604Z,9.33
2023-01-27T02:33:30.366Z,10.93
2023-01-27T02:36:08.487Z,9.70
2023-01-27T02:38:36.330Z,11.97
2023-01-27T02:41:06.638Z,12.60
2023-01-27T02:43:32.401Z,6.95
2023-01-27T02:45:58.234Z,11.47
2023-01-27T02:48:23.997Z,11.97
2023-01-27T02:50:49.916Z,9.17
2023-01-27T02:53:15.675Z,10.37
2023-01-27T02:55:41.403Z,11.47
2023-01-27T02:58:07.120Z,10.93
2023-01-27T03:00:32.908Z,10.17
2023-01-27T03:02:58.639Z,10.53
2023-01-27T03:05:24.446Z,8.23
2023-01-27T03:07:50.179Z,9.10
2023-01-27T03:10:16.243Z,9.00
2023-01-27T03:12:43.578Z,9.33
2023-01-27T03:15:28.309Z,10.10
2023-01-27T03:18:09.056Z,8.10
2023-01-27T03:23:00.533Z,9.33
2023-01-27T03:25:26.241Z,8.43
2023-01-27T03:27:51.996Z,9.00
2023-01-27T03:30:17.717Z,9.20
2023-01-27T03:32:46.084Z,11.03
2023-01-27T03:35:13.768Z,7.97
2023-01-27T03:37:59.088Z,9.27
2023-01-27T03:40:43.238Z,9.20
2023-01-27T03:43:27.519Z,11.63
2023-01-27T03:46:11.745Z,9.73
2023-01-27T03:48:37.469Z,9.83
2023-01-27T03:51:04.248Z,9.47
2023-01-27T03:53:30.035Z,9.67
2023-01-27T03:55:55.817Z,10.03
2023-01-27T03:58:24.537Z,9.07
2023-01-27T04:00:51.684Z,9.40
2023-01-27T04:03:36.426Z,9.87
2023-01-27T04:06:24.871Z,8.80
2023-01-27T04:08:50.824Z,9.20
2023-01-27T04:11:35.554Z,10.00
2023-01-27T04:14:02.357Z,9.70
2023-01-27T04:16:29.553Z,9.80
2023-01-27T04:18:55.695Z,9.17
2023-01-27T04:21:21.556Z,8.10
2023-01-27T04:23:47.311Z,9.13
2023-01-27T04:26:13.031Z,8.80
2023-01-27T04:28:44.209Z,8.03
2023-01-27T04:31:10.722Z,8.43
2023-01-27T04:33:36.498Z,10.43
2023-01-27T04:36:02.245Z,9.03
2023-01-27T04:38:28.134Z,8.77
2023-01-27T04:40:53.858Z,7.67
2023-01-27T04:43:19.589Z,8.00
2023-01-27T04:45:45.376Z,8.43
2023-01-27T04:48:11.101Z,8.33
2023-01-27T04:50:36.919Z,8.70
2023-01-27T04:53:02.786Z,8.87
2023-01-27T04:55:28.698Z,8.93
2023-01-27T04:57:54.432Z,7.80
2023-01-27T05:00:20.306Z,9.00
2023-01-27T05:02:46.089Z,9.53
2023-01-27T05:05:12.221Z,9.30
2023-01-27T05:07:38.360Z,10.97
2023-01-27T05:10:04.389Z,9.17
2023-01-27T05:12:30.146Z,9.57
2023-01-27T05:14:55.859Z,8.23
2023-01-27T05:17:21.569Z,8.40
2023-01-27T05:19:47.315Z,7.80
2023-01-27T05:22:18.380Z,7.07
2023-01-27T05:24:44.564Z,7.73
2023-01-27T05:27:10.541Z,6.85
2023-01-27T05:29:37.885Z,7.67
2023-01-27T05:32:03.891Z,8.13
2023-01-27T05:34:29.750Z,8.23
2023-01-27T05:36:55.829Z,7.57
2023-01-27T05:39:21.967Z,8.67
2023-01-27T05:41:48.836Z,6.00
2023-01-27T05:44:14.830Z,6.93
2023-01-27T05:46:41.610Z,7.37
2023-01-27T05:49:07.986Z,9.27
2023-01-27T05:51:35.476Z,8.33
2023-01-27T05:54:01.807Z,8.10
2023-01-27T05:56:28.117Z,8.23
2023-01-27T05:58:55.021Z,8.33
2023-01-27T06:01:22.123Z,8.93
2023-01-27T06:03:48.392Z,7.87
2023-01-27T06:06:15.121Z,10.00
2023-01-27T06:11:27.781Z,9.20
2023-01-27T06:13:53.684Z,9.30
2023-01-27T06:16:20.757Z,9.10
2023-01-27T06:18:47.787Z,9.03
2023-01-27T06:21:32.410Z,7.72
2023-01-27T06:24:03.822Z,7.20
2023-01-27T06:26:29.973Z,7.93
2023-01-27T06:28:57.354Z,9.23
2023-01-27T06:31:23.387Z,9.57
2023-01-27T06:33:50.096Z,8.53
2023-01-27T06:36:17.226Z,8.47
2023-01-27T06:38:43.102Z,7.40
2023-01-27T06:41:09.411Z,9.43
2023-01-27T06:43:35.837Z,7.75
2023-01-27T06:46:04.360Z,7.53
2023-01-27T06:48:32.010Z,8.07
2023-01-27T06:50:58.043Z,9.37
2023-01-27T06:53:23.934Z,10.10
2023-01-27T06:55:54.531Z,8.70
2023-01-27T06:58:20.707Z,8.52
2023-01-27T07:00:47.503Z,10.00
2023-01-27T07:05:39.554Z,8.40
2023-01-27T07:08:05.523Z,8.87
2023-01-27T07:10:35.568Z,7.57
2023-01-27T07:13:12.084Z,7.35
2023-01-27T07:15:38.402Z,7.63
2023-01-27T07:18:04.883Z,8.07
2023-01-27T07:20:31.761Z,7.63
2023-01-27T07:23:02.984Z,7.27
2023-01-27T07:25:30.197Z,7.25
2023-01-27T07:27:59.617Z,7.07
2023-01-27T07:30:26.257Z,6.30
2023-01-27T07:32:54.083Z,6.90
2023-01-27T07:35:20.235Z,5.37
2023-01-27T07:37:46.187Z,6.00
2023-01-27T07:40:15.233Z,6.30
2023-01-27T07:42:41.722Z,7.23
2023-01-27T07:45:12.209Z,6.50
2023-01-27T07:47:38.394Z,5.90
2023-01-27T07:50:05.480Z,5.87
2023-01-27T07:52:41.009Z,7.20
2023-01-27T07:55:07.612Z,7.03
2023-01-27T07:57:34.603Z,6.23
2023-01-27T08:00:00.485Z,6.60
2023-01-27T08:02:27.788Z,6.70
2023-01-27T08:04:53.988Z,5.67
2023-01-27T08:07:20.246Z,6.27
2023-01-27T08:09:48.792Z,5.77
2023-01-27T08:12:14.778Z,5.63
2023-01-27T08:14:40.619Z,6.47
2023-01-27T08:17:06.481Z,6.95
2023-01-27T08:19:32.478Z,6.03
2023-01-27T08:22:22.710Z,5.97
2023-01-27T08:24:49.114Z,5.38
2023-01-27T08:27:15.915Z,6.93
2023-01-27T08:29:42.322Z,7.18
2023-01-27T08:32:08.741Z,6.25
2023-01-27T08:34:34.638Z,8.73
2023-01-27T08:37:00.640Z,7.00
2023-01-27T08:39:26.830Z,7.57
2023-01-27T08:41:53.515Z,7.00
2023-01-27T08:44:19.363Z,7.18
2023-01-27T08:46:45.220Z,6.43
2023-01-27T08:49:13.462Z,7.43
2023-01-27T08:51:39.821Z,7.43
2023-01-27T08:54:05.996Z,7.47
2023-01-27T08:56:32.050Z,7.45
2023-01-27T08:58:57.925Z,9.00
2023-01-27T09:01:23.900Z,9.05
2023-01-27T09:03:50.313Z,7.03
2023-01-27T09:06:17.417Z,7.30
2023-01-27T09:08:43.864Z,7.68
2023-01-27T09:11:16.855Z,5.88
2023-01-27T09:13:43.108Z,7.32
2023-01-27T09:16:09.174Z,6.97
2023-01-27T09:18:35.954Z,6.35
2023-01-27T09:21:05.349Z,6.45
2023-01-27T09:23:31.725Z,6.05
2023-01-27T09:25:57.630Z,6.03
2023-01-27T09:28:23.700Z,7.35
2023-01-27T09:30:49.877Z,6.95
2023-01-27T09:33:16.483Z,5.22
2023-01-27T09:35:48.241Z,6.05
2023-01-27T09:38:17.971Z,6.40
2023-01-27T09:40:49.832Z,6.28
2023-01-27T09:43:26.109Z,6.47
2023-01-27T09:46:05.001Z,7.18
2023-01-27T09:48:36.107Z,6.93
2023-01-27T09:51:34.721Z,7.22
2023-01-27T09:54:39.489Z,7.88
2023-01-27T09:57:21.358Z,6.85
2023-01-27T10:00:02.442Z,8.52
2023-01-27T10:02:36.954Z,6.82
2023-01-27T10:05:05.891Z,7.93
2023-01-27T10:07:41.138Z,6.43
2023-01-27T10:10:11.502Z,5.80
2023-01-27T10:12:46.880Z,6.50
2023-01-27T10:15:22.458Z,6.22
2023-01-27T10:17:58.537Z,6.68
2023-01-27T10:21:03.733Z,6.72
2023-01-27T10:23:30.781Z,5.93
2023-01-27T10:25:56.714Z,4.97
2023-01-27T10:37:41.127Z,4.43
2023-01-27T10:51:51.931Z,4.35
2023-01-27T10:54:53.250Z,3.97
2023-01-27T10:57:26.851Z,4.93
2023-01-27T11:00:33.685Z,3.30
2023-01-27T11:02:57.568Z,3.63
2023-01-27T11:05:41.311Z,3.67
2023-01-27T11:08:21.415Z,4.32
2023-01-27T11:11:08.189Z,4.00
2023-01-27T11:13:37.387Z,3.35
2023-01-27T11:16:06.350Z,4.57
2023-01-27T11:18:36.341Z,2.88
2023-01-27T13:38:22.442Z,3.85
2023-01-27T13:40:49.151Z,6.25
2023-01-27T13:43:41.376Z,4.93
2023-01-27T13:46:17.816Z,5.70
2023-01-27T13:51:45.050Z,5.55
2023-01-27T13:54:19.725Z,3.75
2023-01-27T13:56:58.953Z,5.72
2023-01-27T13:59:50.478Z,5.63
2023-01-27T14:03:03.732Z,5.05
2023-01-27T14:05:32.150Z,4.45
2023-01-27T16:39:21.447Z,4.18
2023-01-27T16:42:16.127Z,3.17
2023-01-27T16:53:29.396Z,3.92
2023-01-27T17:24:36.953Z,2.95
2023-01-27T17:27:11.533Z,2.10
2023-01-27T17:29:41.625Z,1.80
2023-01-27T17:49:45.476Z,2.67
2023-01-27T17:55:23.650Z,1.98
2023-01-27T17:57:51.189Z,3.00
2023-01-27T18:00:40.364Z,2.40
2023-01-27T18:03:21.481Z,1.60
2023-01-27T18:05:48.816Z,1.95
2023-01-27T18:08:15.503Z,2.67
2023-01-27T18:10:45.731Z,2.17
2023-01-27T18:38:22.975Z,2.25
2023-01-27T18:40:48.879Z,1.25
2023-01-27T18:43:15.087Z,2.50
2023-01-27T18:45:43.090Z,1.23
2023-01-27T18:48:11.750Z,1.48
2023-01-27T18:50:41.718Z,2.35
2023-01-27T18:53:14.836Z,2.00
2023-01-27T18:55:41.238Z,1.20
2023-01-27T18:58:07.759Z,1.95
2023-01-27T19:00:40.172Z,1.48
2023-01-27T19:03:10.972Z,1.92
2023-01-27T19:08:05.759Z,1.92
2023-01-27T19:10:35.898Z,1.50
2023-01-27T19:13:07.836Z,1.80
2023-01-27T19:15:36.866Z,1.55
2023-01-27T19:18:09.424Z,1.77
2023-01-27T19:20:35.762Z,1.65
2023-01-27T19:28:37.457Z,1.33
2023-01-27T19:31:04.178Z,1.85
2023-01-27T19:33:41.359Z,2.20
2023-01-27T19:36:26.236Z,1.67
2023-01-27T19:39:11.047Z,1.65
2023-01-27T19:41:36.985Z,1.90
2023-01-27T19:44:02.870Z,2.25
2023-01-27T19:46:29.545Z,1.85
2023-01-27T19:48:55.551Z,1.47
2023-01-27T19:51:21.453Z,2.70
2023-01-27T19:53:47.491Z,2.10
2023-01-27T19:56:20.329Z,1.53
2023-01-27T19:58:49.315Z,3.27
2023-01-27T20:01:15.263Z,2.13
2023-01-27T20:03:41.349Z,1.88
2023-01-27T20:06:33.856Z,2.30
2023-01-27T20:09:02.662Z,1.77
2023-01-27T20:11:36.793Z,1.87
2023-01-27T20:14:04.192Z,2.00
2023-01-27T20:16:30.607Z,3.20
2023-01-27T20:18:57.223Z,2.13
2023-01-27T20:24:15.103Z,2.00
2023-01-27T20:26:41.369Z,2.00
2023-01-27T20:29:07.383Z,2.47
2023-01-27T20:31:33.854Z,2.17
2023-01-27T20:33:59.885Z,1.90
2023-01-27T20:36:32.550Z,2.53
2023-01-27T20:38:58.842Z,2.00
2023-01-27T20:41:24.662Z,2.40
2023-01-27T20:43:58.161Z,1.53
2023-01-27T20:46:24.544Z,1.20
2023-01-27T20:48:50.561Z,2.85
2023-01-27T20:51:18.206Z,2.37
2023-01-27T20:53:46.174Z,2.50
2023-01-27T20:56:13.544Z,2.10
2023-01-27T20:58:39.379Z,2.00
2023-01-27T21:01:13.350Z,1.95
2023-01-27T21:03:40.125Z,1.40
2023-01-27T21:06:28.361Z,2.13
2023-01-27T21:08:56.338Z,2.43
2023-01-27T21:11:22.206Z,2.25
2023-01-27T21:13:48.406Z,2.15
2023-01-27T21:16:14.549Z,1.55
2023-01-27T21:18:40.812Z,2.63
2023-01-27T21:21:19.645Z,2.58
2023-01-27T21:23:46.983Z,2.10
2023-01-27T21:26:13.726Z,2.67
2023-01-27T21:28:40.096Z,2.10
2023-01-27T21:31:06.874Z,2.33
2023-01-27T21:33:34.429Z,2.37
2023-01-27T21:36:24.151Z,2.10
2023-01-27T21:38:53.281Z,3.33
2023-01-27T21:41:40.042Z,1.90
2023-01-27T21:44:30.302Z,2.08
2023-01-27T21:46:56.710Z,4.40
2023-01-27T21:49:22.772Z,1.93
2023-01-27T21:51:51.970Z,2.73
2023-01-27T21:54:19.119Z,2.27
2023-01-27T21:56:44.964Z,2.00
2023-01-27T21:59:10.868Z,1.70
2023-01-27T22:01:41.055Z,1.67
2023-01-27T22:04:07.039Z,1.80
2023-01-27T22:06:32.898Z,1.58
2023-01-27T22:09:00.094Z,1.70
2023-01-27T22:11:25.926Z,2.57
2023-01-27T22:13:51.715Z,2.05
2023-01-27T22:16:19.765Z,2.03
2023-01-27T22:18:46.022Z,2.10
2023-01-27T22:21:12.816Z,1.90
2023-01-27T22:23:39.067Z,2.20
2023-01-27T22:26:06.134Z,2.20
2023-01-27T22:28:31.958Z,2.37
2023-01-27T22:31:00.086Z,1.80
2023-01-27T22:33:25.882Z,1.90
2023-01-27T22:36:03.530Z,1.92
2023-01-27T22:38:29.516Z,2.07
2023-01-27T22:40:59.171Z,2.60
2023-01-27T22:43:25.346Z,2.23
2023-01-27T22:45:51.530Z,2.77
2023-01-27T22:48:17.515Z,2.28
2023-01-27T22:50:43.703Z,2.40
2023-01-27T22:53:10.477Z,2.75
2023-01-27T22:55:36.207Z,2.57
2023-01-27T22:58:02.168Z,2.20
2023-01-27T23:00:27.962Z,2.97
2023-01-27T23:02:53.725Z,2.00
2023-01-27T23:05:20.015Z,1.80
2023-01-27T23:07:46.732Z,2.10
2023-01-27T23:10:12.686Z,2.13
2023-01-27T23:12:38.660Z,2.60
2023-01-27T23:15:04.781Z,1.58
2023-01-27T23:17:30.548Z,2.80
2023-01-27T23:19:56.265Z,2.08
2023-01-27T23:22:22.423Z,2.03
2023-01-27T23:24:48.213Z,2.53
2023-01-27T23:27:14.190Z,2.20
2023-01-27T23:29:39.966Z,2.13
2023-01-27T23:32:06.102Z,1.90
2023-01-27T23:34:32.088Z,2.43
2023-01-27T23:36:57.875Z,2.53
2023-01-27T23:39:23.669Z,2.30
2023-01-27T23:41:49.550Z,1.63
2023-01-27T23:44:15.498Z,2.10
2023-01-27T23:46:42.692Z,2.13
2023-01-27T23:49:09.647Z,1.70
2023-01-27T23:51:35.474Z,1.90
2023-01-27T23:54:01.537Z,2.40
2023-01-27T23:56:27.329Z,1.97
2023-01-27T23:58:53.108Z,1.97
